Troye d'Ariège ULM

FR-0355 · Ariège, Occitanie, 法国

罗盘
风向 的 风向 的 风向 到 风向 240° Troye d'Ariège ULM 11/29
风: 4 kt, 2 beaufort

3 kt

3 kt
改变
0 1.000 2.000 3.000 4.000 5.000
OVC 2.600 ft
METAR LFMK 040500Z AUTO 24004KT 200V280 9999 OVC026 06/04 Q1008 TEMPO BKN008

METAR Troye d'Ariège ULM - FR-0355

Troye d'Ariège ULM是,法国中的小机场。 该机场有一条跑道: 11/29. 该领域的国际民航组织标志是FR-0355.

这份报告是针对2022年12月4日 06:00, 当地时间在Carcassonne Airport进行的。

机场观察

风向为240°,速度为4 kt。 风向在200°和280°之间变化。

可见度为10 km 或者更多。

有乌云密布在2.600 ft的高度。 破损或更高的上限为2.600 ft。

温度为6 °C,阵风为3 °C。 露点为4 °C,相对湿度为87%。 海平面上的气压为1008 hPa (QNH)。

发展趋势

  • 暂时的

    可变方向的风很小或没有。 碎云在800 ft的高度.

白天

今天,太阳从08:07升起,在17:18降落。 这适用于Troye d'Ariège ULM,世界夏令时可能有所不同。 当地时间与世界标准时间之间的时差为+1 小时。 当前,没有夏令时有效。

公司介绍

我们没有关于这个机场的公司信息。

体会

到Vliegles.nl去找飞行课程,跳伞和其他飞行体验。 浏览页面,了解Troye d'Ariège ULM附近所有可用的活动。 你也可以使用搜索功能来寻找你所在地附近的特定飞行课程、跳伞或其他飞行体验。

跑道

Id 标题 侧风 逆风 侧风 %
11/29 110°-290° 3 kt 3 kt 77 %

逆风成分最大的方向会被突出显示,并用于横风计算。 这并不一定意味着这个方向在使用。

乌云

2.600 ft OVC 乌云密布
800 ft BKN 暂时的 碎云

温度 & 天气

温度 6 °C
露点 4 °C
相对湿度 87%
风寒 3 °C
Kp-index 1 (0-9)

白天

日出
08:06 (1:55)
中午
12:40
日落
17:15

小工具

你想在你的网站上有一个关于Troye d'Ariège ULM的当前航空天气(METAR)的小部件吗?

显示HTML代码

我们和第三方通过cookies跟踪您在我们网站上的互联网行为。如果你继续,我们认为你同意我们的饼干政策